createdAt,value
2017-12-24T00:00:42.103Z,15.23
2017-12-24T00:03:08.507Z,12.40
2017-12-24T00:05:34.849Z,14.50
2017-12-24T00:08:01.916Z,16.95
2017-12-24T00:10:31.108Z,17.05
2017-12-24T00:12:58.190Z,15.77
2017-12-24T00:15:25.216Z,18.98
2017-12-24T00:17:51.512Z,18.48
2017-12-24T00:20:18.539Z,17.42
2017-12-24T00:22:44.809Z,17.25
2017-12-24T00:25:11.861Z,19.60
2017-12-24T00:27:38.903Z,16.77
2017-12-24T00:30:05.178Z,18.45
2017-12-24T00:32:32.319Z,16.98
2017-12-24T00:34:59.403Z,21.60
2017-12-24T00:37:26.621Z,16.95
2017-12-24T00:39:53.729Z,18.73
2017-12-24T00:42:20.450Z,17.05
2017-12-24T00:44:48.623Z,17.42
2017-12-24T00:47:14.932Z,16.67
2017-12-24T00:49:41.983Z,17.73
2017-12-24T00:52:08.310Z,17.02
2017-12-24T00:54:34.625Z,15.75
2017-12-24T00:57:00.956Z,14.15
2017-12-24T00:59:27.256Z,15.30
2017-12-24T01:01:54.386Z,14.50
2017-12-24T01:04:20.710Z,17.42
2017-12-24T01:06:47.060Z,13.70
2017-12-24T01:09:13.381Z,18.17
2017-12-24T01:11:40.428Z,17.25
2017-12-24T01:14:07.520Z,14.98
2017-12-24T01:16:33.778Z,15.20
2017-12-24T01:19:00.109Z,18.23
2017-12-24T01:21:26.459Z,17.77
2017-12-24T01:23:52.781Z,16.85
2017-12-24T01:26:20.279Z,15.52
2017-12-24T01:28:46.613Z,17.45
2017-12-24T01:31:12.961Z,17.02
2017-12-24T01:33:39.307Z,13.48
2017-12-24T01:36:06.041Z,13.93
2017-12-24T01:38:33.129Z,15.18
2017-12-24T01:40:59.480Z,13.68
2017-12-24T01:43:25.804Z,20.88
2017-12-24T01:45:52.908Z,12.70
2017-12-24T01:48:19.363Z,13.38
2017-12-24T01:50:45.713Z,14.55
2017-12-24T01:53:12.035Z,15.93
2017-12-24T01:55:39.149Z,17.08
2017-12-24T01:58:05.498Z,14.18
2017-12-24T02:00:31.851Z,15.57
2017-12-24T02:02:58.587Z,13.23
2017-12-24T02:05:24.936Z,12.93
2017-12-24T02:07:51.239Z,15.98
2017-12-24T02:10:17.568Z,14.65
2017-12-24T02:12:44.655Z,12.80
2017-12-24T02:15:11.045Z,10.20
2017-12-24T02:17:37.408Z,13.55
2017-12-24T02:20:03.716Z,13.93
2017-12-24T02:22:30.068Z,13.10
2017-12-24T02:24:56.404Z,13.35
2017-12-24T02:27:22.787Z,14.25
2017-12-24T02:29:49.192Z,13.90
2017-12-24T02:32:15.517Z,16.50
2017-12-24T02:34:41.826Z,16.70
2017-12-24T02:37:08.909Z,10.90
2017-12-24T02:39:35.232Z,13.48
2017-12-24T02:42:01.526Z,14.52
2017-12-24T02:44:28.562Z,11.55
2017-12-24T02:46:55.656Z,11.45
2017-12-24T02:49:22.699Z,13.80
2017-12-24T02:51:49.074Z,12.07
2017-12-24T02:54:15.371Z,14.38
2017-12-24T02:56:41.718Z,9.75
2017-12-24T02:59:08.058Z,12.15
2017-12-24T03:01:34.396Z,11.23
2017-12-24T03:04:00.709Z,11.80
2017-12-24T03:06:27.791Z,10.93
2017-12-24T03:08:54.136Z,7.62
2017-12-24T03:11:21.201Z,9.55
2017-12-24T03:13:47.496Z,6.70
2017-12-24T03:16:15.397Z,10.73
2017-12-24T03:18:41.727Z,9.27
2017-12-24T03:21:08.076Z,10.85
2017-12-24T03:23:34.387Z,10.48
2017-12-24T03:26:04.112Z,7.15
2017-12-24T03:28:30.424Z,10.88
2017-12-24T03:30:56.766Z,11.60
2017-12-24T03:33:23.117Z,11.02
2017-12-24T03:35:49.492Z,9.32
2017-12-24T03:38:15.844Z,10.40
2017-12-24T03:40:42.152Z,10.30
2017-12-24T03:43:08.473Z,11.63
2017-12-24T03:45:34.809Z,11.10
2017-12-24T03:48:01.154Z,12.52
2017-12-24T03:50:27.455Z,10.93
2017-12-24T03:52:53.805Z,10.35
2017-12-24T03:55:20.145Z,11.75
2017-12-24T03:57:46.493Z,9.23
2017-12-24T04:00:12.820Z,7.20
2017-12-24T04:02:39.153Z,8.10
2017-12-24T04:05:05.478Z,6.60
2017-12-24T04:07:32.569Z,6.97
2017-12-24T04:09:58.904Z,7.97
2017-12-24T04:12:25.240Z,8.25
2017-12-24T04:14:51.565Z,7.65
2017-12-24T04:17:17.915Z,6.18
2017-12-24T04:19:44.236Z,5.20
2017-12-24T04:22:10.603Z,7.07
2017-12-24T04:24:36.952Z,5.85
2017-12-24T04:27:03.263Z,7.10
2017-12-24T04:29:30.329Z,6.47
2017-12-24T04:31:56.676Z,6.30
2017-12-24T04:34:23.351Z,5.80
2017-12-24T04:36:49.687Z,6.15
2017-12-24T04:39:15.976Z,8.63
2017-12-24T04:41:43.110Z,7.50
2017-12-24T04:44:09.466Z,7.30
2017-12-24T04:46:35.802Z,6.20
2017-12-24T04:49:02.152Z,7.90
2017-12-24T04:51:28.517Z,8.70
2017-12-24T04:53:54.849Z,7.72
2017-12-24T04:56:21.181Z,8.73
2017-12-24T04:58:47.584Z,9.35
2017-12-24T05:01:13.941Z,8.77
2017-12-24T05:03:42.065Z,8.88
2017-12-24T05:06:08.364Z,7.30
2017-12-24T05:08:34.724Z,7.57
2017-12-24T05:11:01.060Z,8.82
2017-12-24T05:13:28.153Z,8.07
2017-12-24T05:15:54.492Z,6.30
2017-12-24T05:18:20.793Z,7.95
2017-12-24T05:20:47.204Z,9.25
2017-12-24T05:23:13.543Z,8.60
2017-12-24T05:25:39.891Z,9.02
2017-12-24T05:28:06.953Z,6.12
2017-12-24T05:30:33.416Z,5.90
2017-12-24T05:33:00.560Z,8.48
2017-12-24T05:35:26.858Z,6.85
2017-12-24T05:37:53.156Z,7.95
2017-12-24T05:40:19.472Z,6.50
2017-12-24T05:42:45.807Z,7.72
2017-12-24T05:45:12.117Z,7.07
2017-12-24T05:47:38.450Z,6.70
2017-12-24T05:50:04.789Z,6.50
2017-12-24T05:52:31.128Z,7.05
2017-12-24T05:54:57.445Z,8.32
2017-12-24T05:57:24.504Z,7.68
2017-12-24T05:59:51.560Z,6.43
2017-12-24T06:02:17.888Z,6.37
2017-12-24T06:04:44.953Z,8.60
2017-12-24T06:07:11.272Z,6.53
2017-12-24T06:09:37.606Z,7.10
2017-12-24T06:12:03.918Z,6.78
2017-12-24T06:14:30.215Z,7.20
2017-12-24T06:16:56.506Z,8.35
2017-12-24T06:19:22.813Z,8.15
2017-12-24T06:21:49.136Z,7.03
2017-12-24T06:24:15.456Z,7.43
2017-12-24T06:26:42.517Z,7.37
2017-12-24T06:29:08.836Z,7.55
2017-12-24T06:31:35.161Z,10.52
2017-12-24T06:34:04.182Z,7.75
2017-12-24T06:36:30.493Z,7.68
2017-12-24T06:38:57.573Z,8.88
2017-12-24T06:41:23.942Z,6.15
2017-12-24T06:43:50.251Z,7.47
2017-12-24T06:46:16.571Z,8.32
2017-12-24T06:48:42.840Z,8.05
2017-12-24T06:51:09.184Z,9.00
2017-12-24T06:53:35.514Z,7.30
2017-12-24T06:56:01.860Z,7.28
2017-12-24T06:58:28.190Z,7.43
2017-12-24T07:00:55.215Z,7.12
2017-12-24T07:03:21.538Z,5.20
2017-12-24T07:05:54.052Z,7.65
2017-12-24T07:08:20.378Z,7.45
2017-12-24T07:10:49.332Z,6.70
2017-12-24T07:13:15.761Z,5.40
2017-12-24T07:15:42.068Z,6.72
2017-12-24T07:18:08.368Z,6.28
2017-12-24T07:20:34.679Z,7.57
2017-12-24T07:23:01.008Z,8.30
2017-12-24T07:25:27.356Z,6.80
2017-12-24T07:27:53.705Z,10.32
2017-12-24T07:30:20.080Z,7.87
2017-12-24T07:32:46.362Z,8.57
2017-12-24T07:35:12.760Z,7.28
2017-12-24T07:37:39.830Z,8.48
2017-12-24T07:40:06.178Z,9.93
2017-12-24T07:42:32.500Z,7.95
2017-12-24T07:44:58.880Z,8.13
2017-12-24T07:47:25.257Z,11.73
2017-12-24T07:49:51.694Z,9.68
2017-12-24T07:52:18.771Z,6.82
2017-12-24T07:54:45.092Z,8.40
2017-12-24T07:57:11.504Z,7.10
2017-12-24T07:59:37.821Z,10.10
2017-12-24T08:02:04.194Z,7.57
2017-12-24T08:04:30.504Z,6.12
2017-12-24T08:06:56.848Z,7.85
2017-12-24T08:09:25.811Z,6.60
2017-12-24T08:11:52.148Z,5.70
2017-12-24T08:14:18.485Z,6.82
2017-12-24T08:16:44.815Z,5.40
2017-12-24T08:19:11.149Z,6.55
2017-12-24T08:21:37.544Z,6.65
2017-12-24T08:24:03.888Z,5.50
2017-12-24T08:26:31.056Z,6.87
2017-12-24T08:28:59.547Z,5.60
2017-12-24T08:31:25.880Z,5.20
2017-12-24T08:33:55.209Z,5.40
2017-12-24T08:36:21.567Z,4.97
2017-12-24T08:38:47.916Z,5.35
2017-12-24T08:41:14.977Z,6.20
2017-12-24T08:43:41.280Z,4.90
2017-12-24T08:46:07.953Z,4.82
2017-12-24T08:48:34.075Z,4.43
2017-12-24T08:51:00.245Z,6.05
2017-12-24T08:53:26.407Z,6.30
2017-12-24T08:55:52.553Z,4.50
2017-12-24T08:58:18.877Z,3.10
2017-12-24T09:00:45.233Z,2.10
2017-12-24T09:03:11.355Z,3.92
2017-12-24T09:05:37.796Z,3.90
2017-12-24T09:08:03.937Z,4.10
2017-12-24T09:10:30.350Z,3.75
2017-12-24T09:12:56.676Z,3.90
2017-12-24T09:15:23.009Z,4.45
2017-12-24T09:17:49.342Z,5.35
2017-12-24T09:20:15.693Z,4.70
2017-12-24T09:22:42.008Z,4.20
2017-12-24T09:25:09.092Z,4.53
2017-12-24T09:27:35.450Z,5.00
2017-12-24T09:30:01.779Z,4.70
2017-12-24T09:32:28.143Z,4.40
2017-12-24T09:34:54.628Z,4.00
2017-12-24T09:37:24.421Z,4.72
2017-12-24T09:39:50.548Z,3.95
2017-12-24T09:42:20.134Z,3.78
2017-12-24T09:44:47.013Z,3.47
2017-12-24T09:47:13.880Z,4.65
2017-12-24T09:49:40.770Z,3.37
2017-12-24T09:52:06.955Z,4.20
2017-12-24T09:54:33.059Z,5.97
2017-12-24T09:56:59.180Z,4.82
2017-12-24T09:59:25.356Z,3.35
2017-12-24T10:01:51.579Z,3.58
2017-12-24T10:04:17.700Z,2.85
2017-12-24T10:06:44.580Z,3.87
2017-12-24T10:09:10.709Z,3.00
2017-12-24T10:11:37.585Z,2.17
2017-12-24T10:14:03.705Z,3.03
2017-12-24T10:16:30.548Z,2.95
2017-12-24T10:18:56.698Z,2.15
2017-12-24T10:21:22.840Z,1.80
2017-12-24T10:23:48.956Z,2.10
2017-12-24T10:26:15.080Z,3.33
2017-12-24T10:28:41.379Z,1.70
2017-12-24T10:31:08.255Z,1.80
2017-12-24T10:33:35.132Z,2.67
2017-12-24T10:36:02.015Z,2.75
2017-12-24T10:38:28.204Z,1.62
2017-12-24T10:40:54.311Z,1.90
2017-12-24T10:43:20.660Z,2.37
2017-12-24T10:45:47.019Z,2.20
2017-12-24T10:48:13.746Z,2.03
2017-12-24T10:50:43.889Z,2.85
2017-12-24T10:53:10.980Z,2.12
2017-12-24T10:55:37.279Z,3.87
2017-12-24T10:58:03.645Z,2.00
2017-12-24T11:00:30.812Z,3.22
2017-12-24T11:02:57.690Z,2.53
2017-12-24T11:05:23.820Z,2.78
2017-12-24T11:07:51.944Z,3.35
2017-12-24T11:10:18.072Z,5.62
2017-12-24T11:12:44.304Z,2.65
2017-12-24T11:15:10.415Z,2.62
2017-12-24T11:17:38.721Z,3.00
2017-12-24T11:20:05.068Z,2.40
2017-12-24T11:22:32.174Z,3.55
2017-12-24T11:24:59.379Z,4.15
2017-12-24T11:27:25.714Z,2.35
2017-12-24T11:29:51.987Z,2.30
2017-12-24T11:32:18.276Z,4.45
2017-12-24T11:34:44.579Z,2.55
2017-12-24T11:37:11.716Z,4.03
2017-12-24T11:39:38.172Z,3.35
2017-12-24T11:42:04.464Z,3.25
2017-12-24T11:44:30.774Z,4.05
2017-12-24T11:46:57.077Z,4.20
2017-12-24T11:49:23.435Z,3.25
2017-12-24T11:51:49.783Z,3.55
2017-12-24T11:54:16.857Z,4.28
2017-12-24T11:56:43.085Z,3.92
2017-12-24T11:59:09.360Z,6.97
2017-12-24T12:01:35.804Z,6.90
2017-12-24T12:04:02.236Z,4.57
2017-12-24T12:06:28.813Z,7.10
2017-12-24T12:08:55.125Z,4.55
2017-12-24T12:11:26.475Z,4.65
2017-12-24T12:13:52.725Z,5.25
2017-12-24T12:16:19.473Z,5.90
2017-12-24T12:18:45.607Z,4.35
2017-12-24T12:21:11.832Z,3.67
2017-12-24T12:23:37.931Z,4.37
2017-12-24T12:26:04.048Z,5.12
2017-12-24T12:28:30.173Z,4.35
2017-12-24T12:30:57.397Z,5.78
2017-12-24T12:33:23.658Z,3.15
2017-12-24T12:35:49.782Z,4.00
2017-12-24T12:38:15.904Z,3.33
2017-12-24T12:40:42.060Z,4.30
2017-12-24T12:43:08.176Z,4.62
2017-12-24T12:45:34.282Z,5.87
2017-12-24T12:48:00.381Z,3.67
2017-12-24T12:50:26.476Z,5.20
2017-12-24T12:52:53.318Z,3.67
2017-12-24T12:55:20.335Z,4.82
2017-12-24T12:57:46.657Z,5.93
2017-12-24T13:00:13.707Z,4.43
2017-12-24T13:02:39.992Z,3.53
2017-12-24T13:05:06.281Z,5.72
2017-12-24T13:07:32.600Z,4.68
2017-12-24T13:09:59.189Z,4.30
2017-12-24T13:12:25.496Z,4.68
2017-12-24T13:14:51.828Z,4.00
2017-12-24T13:17:18.196Z,3.70
2017-12-24T13:19:44.515Z,3.67
2017-12-24T13:22:11.630Z,3.95
2017-12-24T13:24:37.767Z,3.78
2017-12-24T13:27:04.076Z,4.03
2017-12-24T13:29:30.392Z,3.58
2017-12-24T13:31:56.740Z,5.05
2017-12-24T13:34:23.055Z,6.20
2017-12-24T13:36:49.344Z,4.37
2017-12-24T13:39:16.465Z,5.95
2017-12-24T13:41:43.639Z,4.35
2017-12-24T13:44:09.766Z,5.55
2017-12-24T13:46:35.908Z,4.97
2017-12-24T13:49:02.061Z,4.05
2017-12-24T13:51:28.273Z,4.28
2017-12-24T13:53:54.636Z,4.07
2017-12-24T13:56:21.688Z,5.70
2017-12-24T13:58:47.799Z,4.47
2017-12-24T14:01:14.125Z,4.03
2017-12-24T14:03:40.440Z,5.85
2017-12-24T14:06:06.588Z,5.35
2017-12-24T14:08:32.922Z,5.25
2017-12-24T14:10:59.982Z,5.00
2017-12-24T14:13:26.097Z,4.68
2017-12-24T14:15:52.951Z,5.37
2017-12-24T14:18:19.081Z,5.18
2017-12-24T14:20:46.720Z,5.20
2017-12-24T14:23:13.040Z,6.25
2017-12-24T14:25:41.143Z,3.90
2017-12-24T14:28:07.474Z,4.78
2017-12-24T14:30:34.633Z,6.87
2017-12-24T14:33:00.933Z,5.87
2017-12-24T14:35:28.002Z,5.00
2017-12-24T14:37:54.182Z,4.95
2017-12-24T14:40:23.944Z,5.22
2017-12-24T14:42:50.060Z,4.75
2017-12-24T14:45:16.176Z,7.20
2017-12-24T14:47:42.304Z,5.22
2017-12-24T14:50:08.430Z,6.82
2017-12-24T14:52:35.276Z,4.55
2017-12-24T14:55:04.792Z,5.43
2017-12-24T14:57:31.615Z,5.03
2017-12-24T14:59:57.724Z,6.62
2017-12-24T15:02:23.847Z,5.50
2017-12-24T15:04:51.007Z,5.15
2017-12-24T15:07:17.123Z,4.32
2017-12-24T15:09:50.501Z,6.78
2017-12-24T15:12:16.676Z,4.95
2017-12-24T15:14:42.786Z,5.45
2017-12-24T15:17:09.631Z,8.88
2017-12-24T15:19:35.832Z,6.50
2017-12-24T15:22:07.709Z,7.45
2017-12-24T15:24:33.829Z,6.80
2017-12-24T15:26:59.941Z,6.57
2017-12-24T15:29:26.044Z,6.72
2017-12-24T15:31:52.156Z,6.28
2017-12-24T15:34:18.257Z,6.70
2017-12-24T15:36:44.373Z,5.90
2017-12-24T15:39:10.528Z,4.50
2017-12-24T15:41:36.639Z,5.40
2017-12-24T15:44:02.763Z,7.40
2017-12-24T15:46:30.539Z,6.25
2017-12-24T15:48:57.042Z,7.68
2017-12-24T15:51:23.476Z,6.78
2017-12-24T15:53:49.916Z,5.05
2017-12-24T15:56:16.143Z,6.50
2017-12-24T15:58:42.248Z,7.87
2017-12-24T16:01:08.341Z,6.47
2017-12-24T16:03:34.476Z,6.05
2017-12-24T16:06:00.776Z,6.15
2017-12-24T16:08:27.196Z,7.35
2017-12-24T16:10:53.485Z,6.75
2017-12-24T16:13:19.816Z,7.85
2017-12-24T16:15:46.868Z,7.03
2017-12-24T16:18:13.138Z,14.38
2017-12-24T16:20:39.989Z,8.65
2017-12-24T16:23:06.827Z,10.10
2017-12-24T16:25:33.025Z,8.88
2017-12-24T16:27:59.137Z,12.15
2017-12-24T16:30:26.004Z,8.90
2017-12-24T16:32:52.119Z,8.82
2017-12-24T16:35:21.080Z,9.50
2017-12-24T16:37:47.200Z,11.85
2017-12-24T16:40:14.065Z,8.20
2017-12-24T16:42:41.189Z,7.78
2017-12-24T16:45:07.314Z,7.50
2017-12-24T16:50:07.129Z,8.20
2017-12-24T16:52:33.347Z,9.32
2017-12-24T16:54:59.489Z,8.60
2017-12-24T16:57:26.377Z,14.10
2017-12-24T16:59:53.259Z,9.90
2017-12-24T17:02:19.400Z,6.90
2017-12-24T17:04:45.532Z,8.55
2017-12-24T17:07:11.656Z,9.63
2017-12-24T17:09:38.373Z,10.80
2017-12-24T17:12:04.500Z,8.93
2017-12-24T17:14:30.630Z,9.88
2017-12-24T17:16:56.757Z,9.15
2017-12-24T17:19:22.872Z,10.02
2017-12-24T17:21:49.749Z,9.55
2017-12-24T17:24:15.891Z,9.60
2017-12-24T17:26:42.013Z,9.57
2017-12-24T17:29:08.125Z,8.57
2017-12-24T17:31:34.335Z,10.00
2017-12-24T17:34:04.504Z,11.12
2017-12-24T17:36:30.739Z,10.50
2017-12-24T17:38:56.913Z,11.07
2017-12-24T17:41:23.017Z,11.40
2017-12-24T17:43:49.523Z,10.23
2017-12-24T17:46:15.644Z,11.00
2017-12-24T17:48:41.744Z,10.93
2017-12-24T17:51:08.112Z,12.55
2017-12-24T17:53:39.367Z,9.35
2017-12-24T17:56:05.476Z,11.07
2017-12-24T17:58:32.323Z,9.57
2017-12-24T18:00:58.434Z,11.82
2017-12-24T18:03:24.610Z,10.02
2017-12-24T18:05:50.871Z,11.40
2017-12-24T18:08:17.082Z,10.95
2017-12-24T18:10:43.206Z,8.85
2017-12-24T18:13:13.961Z,10.27
2017-12-24T18:15:40.082Z,8.98
2017-12-24T18:18:06.193Z,10.93
2017-12-24T18:20:33.068Z,9.60
2017-12-24T18:22:59.191Z,11.18
2017-12-24T18:25:25.293Z,9.10
2017-12-24T18:27:51.444Z,7.87
2017-12-24T18:30:17.553Z,6.22
2017-12-24T18:32:45.713Z,8.18
2017-12-24T18:35:11.922Z,8.15
2017-12-24T18:37:38.067Z,8.75
2017-12-24T18:40:04.226Z,9.25
2017-12-24T18:42:30.368Z,8.80
2017-12-24T18:44:56.480Z,8.77
2017-12-24T18:47:22.583Z,10.20
2017-12-24T18:49:49.678Z,9.68
2017-12-24T18:52:16.586Z,12.18
2017-12-24T18:54:43.442Z,10.93
2017-12-24T18:57:09.569Z,10.80
2017-12-24T18:59:36.542Z,9.73
2017-12-24T19:02:02.667Z,14.87
2017-12-24T19:04:29.542Z,13.20
2017-12-24T19:06:56.415Z,9.40
2017-12-24T19:09:22.560Z,11.15
2017-12-24T19:11:48.760Z,10.55
2017-12-24T19:14:14.929Z,7.45
2017-12-24T19:16:41.067Z,10.10
2017-12-24T19:19:07.954Z,8.85
2017-12-24T19:21:34.854Z,10.32
2017-12-24T19:24:01.004Z,12.63
2017-12-24T19:26:27.124Z,10.93
2017-12-24T19:28:58.811Z,10.63
2017-12-24T19:31:24.950Z,12.25
2017-12-24T19:33:51.076Z,10.60
2017-12-24T19:36:17.809Z,11.23
2017-12-24T19:38:43.965Z,12.15
2017-12-24T19:41:10.109Z,9.43
2017-12-24T19:43:36.992Z,10.25
2017-12-24T19:46:03.120Z,11.80
2017-12-24T19:48:32.508Z,11.23
2017-12-24T19:50:58.632Z,9.55
2017-12-24T19:53:24.764Z,11.00
2017-12-24T19:55:51.057Z,11.77
2017-12-24T19:58:17.189Z,9.70
2017-12-24T20:00:43.367Z,10.13
2017-12-24T20:03:09.566Z,7.57
2017-12-24T20:05:40.814Z,11.02
2017-12-24T20:08:06.908Z,9.35
2017-12-24T20:10:33.756Z,7.35
2017-12-24T20:12:59.861Z,7.55
2017-12-24T20:15:26.709Z,8.20
2017-12-24T20:17:52.833Z,7.78
2017-12-24T20:20:18.953Z,8.48
2017-12-24T20:25:17.685Z,7.80
2017-12-24T20:27:43.822Z,7.70
2017-12-24T20:30:10.738Z,9.43
2017-12-24T20:32:36.988Z,10.05
2017-12-24T20:35:03.133Z,8.55
2017-12-24T20:37:29.340Z,8.27
2017-12-24T20:39:55.465Z,9.45
2017-12-24T20:42:22.348Z,8.30
2017-12-24T20:44:48.521Z,9.68
2017-12-24T20:47:14.705Z,8.90
2017-12-24T20:49:40.924Z,8.27
2017-12-24T20:52:07.068Z,7.25
2017-12-24T20:54:33.193Z,8.70
2017-12-24T20:56:59.325Z,7.03
2017-12-24T20:59:26.177Z,8.13
2017-12-24T21:01:53.041Z,7.85
2017-12-24T21:04:19.167Z,6.95
2017-12-24T21:06:45.276Z,8.05
2017-12-24T21:09:11.403Z,7.78
2017-12-24T21:11:38.359Z,6.43
2017-12-24T21:14:06.673Z,8.57
2017-12-24T21:16:33.553Z,9.85
2017-12-24T21:19:06.344Z,5.65
2017-12-24T21:21:32.569Z,8.98
2017-12-24T21:23:58.693Z,7.22
2017-12-24T21:26:24.824Z,7.53
2017-12-24T21:28:51.704Z,6.87
2017-12-24T21:31:29.852Z,7.78
2017-12-24T21:33:56.748Z,8.13
2017-12-24T21:36:22.888Z,6.05
2017-12-24T21:38:49.761Z,5.53
2017-12-24T21:41:15.872Z,7.25
2017-12-24T21:43:42.028Z,6.85
2017-12-24T21:46:08.164Z,8.02
2017-12-24T21:48:34.294Z,5.15
2017-12-24T21:51:00.483Z,5.62
2017-12-24T21:53:26.608Z,5.75
2017-12-24T21:55:53.461Z,4.22
2017-12-24T21:58:20.344Z,4.97
2017-12-24T22:00:46.575Z,4.80
2017-12-24T22:03:12.699Z,3.37
2017-12-24T22:05:38.823Z,5.07
2017-12-24T22:08:04.957Z,4.53
2017-12-24T22:10:31.891Z,4.55
2017-12-24T22:12:58.013Z,5.55
2017-12-24T22:15:24.856Z,6.37
2017-12-24T22:17:51.764Z,3.58
2017-12-24T22:20:17.964Z,6.30
2017-12-24T22:22:44.829Z,4.80
2017-12-24T22:25:11.749Z,5.30
2017-12-24T22:27:37.888Z,5.32
2017-12-24T22:30:04.064Z,4.90
2017-12-24T22:32:30.200Z,4.40
2017-12-24T22:34:56.423Z,4.25
2017-12-24T22:37:22.549Z,4.25
2017-12-24T22:39:48.720Z,3.00
2017-12-24T22:42:15.615Z,3.67
2017-12-24T22:44:41.753Z,4.57
2017-12-24T22:47:07.902Z,3.60
2017-12-24T22:49:34.044Z,3.40
2017-12-24T22:52:00.628Z,3.03
2017-12-24T22:54:27.496Z,3.45
2017-12-24T22:56:53.637Z,3.90
2017-12-24T22:59:19.780Z,4.72
2017-12-24T23:01:45.958Z,4.62
2017-12-24T23:04:12.088Z,4.07
2017-12-24T23:06:39.505Z,5.03
2017-12-24T23:09:05.633Z,3.78
2017-12-24T23:11:31.755Z,4.00
2017-12-24T23:13:57.897Z,4.18
2017-12-24T23:16:24.387Z,3.80
2017-12-24T23:18:50.504Z,4.00
2017-12-24T23:21:16.712Z,4.50
2017-12-24T23:23:43.577Z,5.00
2017-12-24T23:26:10.652Z,6.10
2017-12-24T23:28:36.782Z,4.12
2017-12-24T23:31:03.672Z,4.35
2017-12-24T23:33:29.772Z,4.25
2017-12-24T23:35:56.635Z,5.68
2017-12-24T23:38:22.756Z,4.85
2017-12-24T23:40:48.982Z,5.87
2017-12-24T23:43:15.882Z,3.85
2017-12-24T23:45:42.087Z,4.20
2017-12-24T23:48:08.249Z,5.22
2017-12-24T23:50:34.396Z,3.25
2017-12-24T23:53:01.375Z,4.45
2017-12-24T23:55:27.492Z,5.00
2017-12-24T23:57:54.366Z,4.30
